Verdugo City, California
Current Conditions -  °F | °C
As of 4:53 PM on Wednesday 26 Nov 2014 (Local Time) from KBUR Reporting Station
Clear Clear  
Wind Chill: 80°   Ceiling: Unl
Heat Index: 80°   Visibility: 10mi
Dew Point: 25°   Wind: 0mph
Humidity: 13%   Direction: NA
Pressure: 30.14"   Gusts: NA
Location:  34.21°N, 118.24°W
Report Text: KBUR 270053Z 00000KT 10SM CLR 27/M04 A3014 RMK AO2 SLP195 T02671039
Loading
Personal Weather Stations






























Interactive Weather Map New forecast layout! Learn more

10-Day Weather Forecast

Advertisements
Track Severe Weather on mobile